createdAt,value
2022-10-20T00:01:09.755Z,15.27
2022-10-20T00:03:37.628Z,15.93
2022-10-20T00:06:25.213Z,16.20
2022-10-20T00:08:53.470Z,15.80
2022-10-20T00:11:21.849Z,15.13
2022-10-20T00:13:51.015Z,14.95
2022-10-20T00:16:18.830Z,15.02
2022-10-20T00:18:45.682Z,14.63
2022-10-20T00:21:18.937Z,14.65
2022-10-20T00:23:45.900Z,14.07
2022-10-20T00:26:16.671Z,14.07
2022-10-20T00:28:44.145Z,14.27
2022-10-20T00:31:11.975Z,14.18
2022-10-20T00:33:38.936Z,14.05
2022-10-20T00:36:08.527Z,14.10
2022-10-20T00:38:35.966Z,14.30
2022-10-20T00:41:03.488Z,14.13
2022-10-20T00:43:52.211Z,13.98
2022-10-20T00:46:30.772Z,13.77
2022-10-20T00:49:14.420Z,14.48
2022-10-20T00:51:42.700Z,13.90
2022-10-20T00:54:13.753Z,13.77
2022-10-20T00:59:11.048Z,13.98
2022-10-20T01:01:39.105Z,13.70
2022-10-20T01:04:06.369Z,14.20
2022-10-20T01:06:33.486Z,14.05
2022-10-20T01:09:00.960Z,14.30
2022-10-20T01:11:27.734Z,14.20
2022-10-20T01:14:12.926Z,14.55
2022-10-20T01:16:46.578Z,14.55
2022-10-20T01:19:25.544Z,14.10
2022-10-20T01:22:19.827Z,14.77
2022-10-20T01:25:02.382Z,14.40
2022-10-20T01:27:39.831Z,14.88
2022-10-20T01:30:11.999Z,14.98
2022-10-20T01:32:53.112Z,15.07
2022-10-20T01:38:10.090Z,14.73
2022-10-20T01:40:45.196Z,14.17
2022-10-20T01:43:15.151Z,14.93
2022-10-20T01:45:45.850Z,14.82
2022-10-20T01:48:15.602Z,15.70
2022-10-20T01:50:43.389Z,15.60
2022-10-20T01:53:10.319Z,15.60
2022-10-20T01:55:38.772Z,15.80
2022-10-20T01:58:21.184Z,15.88
2022-10-20T02:00:51.212Z,15.40
2022-10-20T02:03:36.779Z,15.73
2022-10-20T02:10:14.492Z,15.27
2022-10-20T02:12:45.466Z,15.18
2022-10-20T02:15:18.153Z,15.25
2022-10-20T02:17:49.351Z,15.02
2022-10-20T02:20:17.583Z,14.85
2022-10-20T02:22:45.140Z,15.35
2022-10-20T02:25:12.989Z,15.20
2022-10-20T02:27:44.894Z,15.13
2022-10-20T02:30:15.489Z,15.02
2022-10-20T02:32:44.394Z,15.07
2022-10-20T02:35:14.868Z,14.90
2022-10-20T02:37:41.690Z,14.63
2022-10-20T02:40:09.223Z,15.25
2022-10-20T02:42:36.076Z,15.57
2022-10-20T02:45:03.969Z,15.48
2022-10-20T02:47:30.746Z,15.15
2022-10-20T02:49:57.623Z,15.35
2022-10-20T02:52:24.458Z,15.40
2022-10-20T02:54:51.321Z,15.82
2022-10-20T02:57:18.101Z,16.20
2022-10-20T02:59:44.913Z,15.77
2022-10-20T03:02:11.777Z,15.55
2022-10-20T03:04:38.553Z,15.10
2022-10-20T03:07:05.357Z,15.98
2022-10-20T03:09:32.339Z,16.00
2022-10-20T03:11:59.120Z,16.17
2022-10-20T03:14:25.924Z,15.98
2022-10-20T03:16:52.768Z,16.00
2022-10-20T03:19:19.638Z,16.58
2022-10-20T03:21:46.928Z,17.60
2022-10-20T03:24:13.722Z,16.35
2022-10-20T03:26:40.544Z,16.85
2022-10-20T03:29:07.553Z,17.23
2022-10-20T03:31:34.454Z,17.63
2022-10-20T03:34:01.303Z,17.20
2022-10-20T03:36:28.078Z,18.10
2022-10-20T03:38:54.892Z,17.67
2022-10-20T03:41:21.765Z,17.27
2022-10-20T03:43:48.527Z,16.85
2022-10-20T03:46:15.393Z,17.80
2022-10-20T03:48:42.308Z,17.40
2022-10-20T03:51:12.248Z,17.00
2022-10-20T03:53:39.035Z,16.20
2022-10-20T03:56:10.857Z,16.58
2022-10-20T03:58:37.887Z,16.85
2022-10-20T04:01:06.530Z,15.98
2022-10-20T04:03:33.355Z,16.40
2022-10-20T04:06:02.757Z,15.50
2022-10-20T04:08:29.635Z,16.08
2022-10-20T04:10:57.496Z,16.42
2022-10-20T04:13:24.443Z,15.30
2022-10-20T04:15:51.247Z,15.27
2022-10-20T04:18:18.001Z,15.45
2022-10-20T04:20:44.918Z,15.57
2022-10-20T04:23:11.989Z,15.98
2022-10-20T04:25:45.957Z,16.23
2022-10-20T04:28:13.714Z,15.55
2022-10-20T04:30:40.545Z,15.50
2022-10-20T04:33:07.342Z,15.63
2022-10-20T04:35:34.395Z,16.33
2022-10-20T04:38:03.641Z,16.15
2022-10-20T04:40:30.513Z,15.80
2022-10-20T04:43:00.274Z,15.32
2022-10-20T04:45:27.554Z,15.50
2022-10-20T04:47:54.870Z,15.13
2022-10-20T04:50:22.071Z,15.50
2022-10-20T04:53:01.568Z,15.55
2022-10-20T04:55:28.344Z,15.50
2022-10-20T04:57:55.218Z,15.50
2022-10-20T05:00:22.007Z,15.80
2022-10-20T05:02:48.786Z,15.65
2022-10-20T05:05:15.644Z,16.35
2022-10-20T05:07:42.547Z,15.90
2022-10-20T05:10:09.876Z,15.48
2022-10-20T05:12:36.969Z,15.43
2022-10-20T05:15:04.515Z,15.57
2022-10-20T05:17:31.569Z,16.35
2022-10-20T05:19:58.411Z,15.82
2022-10-20T05:22:25.192Z,15.80
2022-10-20T05:24:52.045Z,15.55
2022-10-20T05:27:18.825Z,15.48
2022-10-20T05:29:45.594Z,15.25
2022-10-20T05:32:12.380Z,14.80
2022-10-20T05:34:39.366Z,14.70
2022-10-20T05:37:06.146Z,16.30
2022-10-20T05:39:32.961Z,15.93
2022-10-20T05:41:59.921Z,15.73
2022-10-20T05:44:26.814Z,15.93
2022-10-20T05:46:53.552Z,16.10
2022-10-20T05:49:20.393Z,16.30
2022-10-20T05:51:47.512Z,16.80
2022-10-20T05:54:14.798Z,16.40
2022-10-20T05:56:41.658Z,17.50
2022-10-20T05:59:09.725Z,17.48
2022-10-20T06:01:49.128Z,17.33
2022-10-20T06:04:23.769Z,17.50
2022-10-20T06:06:52.220Z,17.00
2022-10-20T06:09:20.451Z,17.30
2022-10-20T06:11:47.965Z,17.63
2022-10-20T06:14:14.920Z,16.88
2022-10-20T06:16:41.686Z,16.60
2022-10-20T06:19:08.481Z,14.98
2022-10-20T06:21:37.321Z,15.57
2022-10-20T06:24:05.962Z,15.50
2022-10-20T06:26:36.544Z,15.23
2022-10-20T06:29:05.923Z,16.52
2022-10-20T06:31:36.062Z,17.90
2022-10-20T06:34:05.782Z,16.53
2022-10-20T06:36:35.440Z,17.50
2022-10-20T06:39:04.579Z,17.30
2022-10-20T06:41:31.914Z,19.83
2022-10-20T06:44:00.012Z,16.85
2022-10-20T06:46:32.399Z,17.20
2022-10-20T06:49:05.193Z,16.38
2022-10-20T06:51:33.365Z,16.08
2022-10-20T06:54:00.968Z,15.63
2022-10-20T06:56:30.442Z,16.27
2022-10-20T06:58:58.475Z,17.80
2022-10-20T07:01:37.133Z,17.38
2022-10-20T07:04:11.253Z,16.75
2022-10-20T07:06:40.292Z,16.27
2022-10-20T07:09:09.232Z,16.55
2022-10-20T07:11:36.196Z,16.77
2022-10-20T07:14:04.085Z,15.73
2022-10-20T07:16:33.608Z,16.17
2022-10-20T07:19:01.990Z,16.00
2022-10-20T07:21:34.939Z,16.10
2022-10-20T07:24:06.313Z,16.40
2022-10-20T07:26:36.137Z,16.42
2022-10-20T07:29:04.173Z,16.48
2022-10-20T07:31:37.316Z,16.02
2022-10-20T07:34:23.766Z,15.90
2022-10-20T07:36:53.186Z,15.63
2022-10-20T07:39:20.136Z,16.05
2022-10-20T07:41:48.344Z,16.10
2022-10-20T07:44:16.005Z,16.20
2022-10-20T07:46:43.262Z,15.85
2022-10-20T07:49:42.853Z,16.35
2022-10-20T07:51:57.176Z,16.02
2022-10-20T07:54:23.977Z,15.95
2022-10-20T07:56:50.948Z,15.38
2022-10-20T07:59:17.771Z,15.65
2022-10-20T08:01:44.854Z,15.10
2022-10-20T08:04:12.035Z,16.10
2022-10-20T08:06:39.637Z,16.33
2022-10-20T08:09:07.606Z,15.70
2022-10-20T08:11:35.457Z,15.30
2022-10-20T08:14:02.245Z,16.10
2022-10-20T08:16:40.031Z,15.27
2022-10-20T08:19:19.273Z,15.43
2022-10-20T08:21:46.095Z,14.95
2022-10-20T08:24:12.924Z,14.27
2022-10-20T08:26:39.770Z,13.70
2022-10-20T08:29:06.705Z,13.35
2022-10-20T08:31:33.547Z,13.35
2022-10-20T08:34:00.464Z,13.32
2022-10-20T08:36:28.342Z,13.32
2022-10-20T08:38:56.512Z,13.55
2022-10-20T08:41:55.468Z,12.80
2022-10-20T08:44:29.262Z,13.63
2022-10-20T08:46:56.338Z,13.60
2022-10-20T08:49:30.785Z,13.45
2022-10-20T08:51:58.865Z,13.38
2022-10-20T08:54:25.836Z,14.82
2022-10-20T08:56:52.970Z,14.93
2022-10-20T08:59:40.053Z,14.10
2022-10-20T09:02:15.831Z,14.20
2022-10-20T09:04:48.341Z,13.68
2022-10-20T09:07:35.333Z,13.20
2022-10-20T09:10:27.222Z,13.50
2022-10-20T09:12:54.097Z,13.20
2022-10-20T09:15:22.747Z,13.30
2022-10-20T09:18:12.475Z,14.73
2022-10-20T09:20:57.229Z,14.77
2022-10-20T09:23:40.606Z,13.80
2022-10-20T09:26:30.485Z,14.80
2022-10-20T09:29:14.455Z,13.75
2022-10-20T09:31:46.508Z,14.38
2022-10-20T09:34:28.182Z,13.30
2022-10-20T09:37:04.693Z,12.80
2022-10-20T09:39:54.980Z,13.32
2022-10-20T09:42:25.059Z,11.75
2022-10-20T09:44:58.479Z,12.05
2022-10-20T09:47:27.527Z,13.57
2022-10-20T09:50:01.637Z,14.35
2022-10-20T09:52:34.510Z,14.60
2022-10-20T09:55:17.426Z,14.10
2022-10-20T09:57:48.384Z,14.68
2022-10-20T10:03:21.604Z,13.07
2022-10-20T10:05:52.924Z,13.30
2022-10-20T10:08:22.025Z,13.32
2022-10-20T10:10:59.435Z,13.02
2022-10-20T10:13:29.302Z,13.32
2022-10-20T10:16:09.372Z,13.63
2022-10-20T10:18:38.508Z,14.30
2022-10-20T10:21:08.551Z,13.55
2022-10-20T10:23:41.118Z,13.60
2022-10-20T10:26:47.596Z,13.70
2022-10-20T10:29:24.333Z,13.20
2022-10-20T10:32:01.928Z,13.43
2022-10-20T10:34:42.707Z,13.60
2022-10-20T10:37:14.089Z,13.50
2022-10-20T10:39:41.845Z,13.80
2022-10-20T10:42:28.273Z,14.32
2022-10-20T10:45:17.299Z,14.20
2022-10-20T10:48:14.022Z,14.20
2022-10-20T10:51:05.760Z,14.27
2022-10-20T10:53:54.386Z,14.13
2022-10-20T10:56:39.633Z,13.63
2022-10-20T10:59:12.719Z,13.88
2022-10-20T11:02:33.829Z,13.82
2022-10-20T11:07:55.072Z,14.18
2022-10-20T11:10:28.471Z,13.65
2022-10-20T11:13:32.828Z,14.23
2022-10-20T11:16:39.453Z,14.32
2022-10-20T11:19:08.999Z,13.55
2022-10-20T11:21:56.401Z,13.50
2022-10-20T11:24:41.512Z,13.80
2022-10-20T11:27:13.513Z,13.73
2022-10-20T11:29:55.215Z,13.30
2022-10-20T11:32:26.790Z,14.00
2022-10-20T11:35:20.801Z,12.75
2022-10-20T11:37:55.054Z,13.60
2022-10-20T11:40:25.197Z,14.32
2022-10-20T11:43:08.764Z,13.90
2022-10-20T11:45:58.284Z,14.40
2022-10-20T11:48:40.744Z,13.40
2022-10-20T11:51:28.482Z,12.88
2022-10-20T11:54:33.806Z,13.27
2022-10-20T11:57:15.611Z,12.70
2022-10-20T11:59:54.632Z,13.45
2022-10-20T12:02:44.578Z,13.07
2022-10-20T12:05:39.079Z,12.47
2022-10-20T12:08:52.564Z,12.82
2022-10-20T12:11:41.173Z,12.98
2022-10-20T12:14:26.547Z,12.63
2022-10-20T12:16:56.013Z,12.43
2022-10-20T12:19:30.875Z,12.48
2022-10-20T12:22:05.264Z,11.57
2022-10-20T12:25:01.874Z,11.88
2022-10-20T12:27:29.718Z,12.25
2022-10-20T12:30:33.275Z,12.07
2022-10-20T12:33:17.325Z,12.57
2022-10-20T12:36:14.881Z,12.48
2022-10-20T12:38:43.309Z,12.25
2022-10-20T12:41:25.449Z,11.35
2022-10-20T12:44:00.799Z,11.73
2022-10-20T12:46:31.574Z,11.23
2022-10-20T12:49:03.872Z,12.00
2022-10-20T12:51:37.939Z,12.70
2022-10-20T12:54:32.684Z,12.63
2022-10-20T12:57:04.848Z,12.23
2022-10-20T12:59:38.179Z,11.60
2022-10-20T13:02:11.211Z,12.63
2022-10-20T13:04:53.294Z,13.27
2022-10-20T13:07:48.187Z,12.45
2022-10-20T13:10:27.341Z,13.27
2022-10-20T13:13:16.145Z,12.93
2022-10-20T13:15:48.211Z,11.88
2022-10-20T13:18:26.882Z,12.25
2022-10-20T13:20:56.644Z,12.60
2022-10-20T13:23:31.714Z,11.60
2022-10-20T13:26:04.261Z,12.38
2022-10-20T13:28:32.359Z,12.23
2022-10-20T13:31:09.114Z,12.18
2022-10-20T13:34:03.217Z,12.38
2022-10-20T13:36:56.012Z,12.52
2022-10-20T13:40:13.567Z,13.43
2022-10-20T13:42:49.741Z,12.30
2022-10-20T13:45:48.348Z,12.15
2022-10-20T13:48:31.549Z,12.65
2022-10-20T13:51:05.942Z,12.38
2022-10-20T13:53:45.781Z,12.90
2022-10-20T13:56:15.310Z,12.63
2022-10-20T13:58:59.022Z,12.18
2022-10-20T14:01:31.135Z,12.70
2022-10-20T14:03:58.121Z,12.95
2022-10-20T14:06:28.297Z,13.00
2022-10-20T14:08:55.917Z,12.82
2022-10-20T14:11:23.217Z,12.95
2022-10-20T14:13:50.607Z,12.93
2022-10-20T14:16:22.648Z,13.35
2022-10-20T14:19:03.676Z,12.77
2022-10-20T14:21:39.448Z,13.50
2022-10-20T14:24:12.476Z,12.95
2022-10-20T14:26:44.243Z,13.23
2022-10-20T14:29:17.381Z,12.80
2022-10-20T14:31:46.313Z,12.93
2022-10-20T14:34:23.231Z,13.73
2022-10-20T14:36:51.605Z,13.32
2022-10-20T14:39:34.394Z,13.65
2022-10-20T14:42:25.375Z,13.60
2022-10-20T14:44:53.846Z,13.98
2022-10-20T14:47:21.373Z,13.45
2022-10-20T14:49:52.693Z,13.43
2022-10-20T14:52:21.893Z,13.05
2022-10-20T14:54:51.041Z,13.57
2022-10-20T14:57:17.764Z,13.18
2022-10-20T14:59:50.686Z,13.68
2022-10-20T15:02:20.736Z,13.07
2022-10-20T15:04:52.182Z,14.40
2022-10-20T15:07:23.469Z,13.60
2022-10-20T15:10:04.199Z,14.57
2022-10-20T15:12:42.864Z,13.48
2022-10-20T15:15:12.837Z,14.35
2022-10-20T15:17:44.127Z,13.27
2022-10-20T15:20:39.868Z,13.55
2022-10-20T15:23:18.189Z,14.48
2022-10-20T15:25:50.824Z,13.57
2022-10-20T15:28:40.583Z,14.32
2022-10-20T15:31:22.987Z,14.52
2022-10-20T15:33:50.392Z,14.55
2022-10-20T15:36:29.008Z,14.00
2022-10-20T15:38:56.623Z,13.98
2022-10-20T15:41:28.693Z,13.75
2022-10-20T15:43:55.657Z,13.60
2022-10-20T15:46:23.052Z,13.98
2022-10-20T15:48:49.925Z,13.90
2022-10-20T15:51:26.408Z,14.15
2022-10-20T15:53:53.567Z,13.80
2022-10-20T15:56:21.176Z,13.90
2022-10-20T15:58:50.146Z,14.40
2022-10-20T16:01:18.437Z,13.90
2022-10-20T16:03:46.444Z,12.80
2022-10-20T16:06:15.133Z,13.30
2022-10-20T16:08:46.994Z,13.30
2022-10-20T16:11:15.063Z,13.70
2022-10-20T16:13:42.328Z,13.60
2022-10-20T16:16:13.044Z,13.82
2022-10-20T16:18:39.956Z,13.50
2022-10-20T16:21:07.672Z,13.05
2022-10-20T16:23:42.197Z,13.88
2022-10-20T16:26:12.583Z,14.73
2022-10-20T16:28:39.520Z,13.57
2022-10-20T16:31:08.874Z,13.75
2022-10-20T16:33:36.031Z,13.70
2022-10-20T16:36:05.487Z,13.73
2022-10-20T16:38:37.358Z,13.88
2022-10-20T16:41:10.267Z,14.02
2022-10-20T16:43:41.654Z,13.32
2022-10-20T16:46:09.837Z,14.05
2022-10-20T16:48:39.025Z,13.63
2022-10-20T16:51:11.456Z,14.20
2022-10-20T16:56:05.554Z,13.45
2022-10-20T16:58:32.388Z,13.75
2022-10-20T17:01:06.356Z,13.93
2022-10-20T17:03:33.403Z,13.80
2022-10-20T17:06:03.484Z,13.18
2022-10-20T17:08:32.083Z,12.95
2022-10-20T17:11:04.938Z,13.15
2022-10-20T17:13:32.237Z,12.82
2022-10-20T17:16:05.807Z,13.13
2022-10-20T17:18:33.006Z,13.55
2022-10-20T17:20:59.889Z,13.15
2022-10-20T17:23:26.988Z,13.00
2022-10-20T17:25:58.292Z,12.65
2022-10-20T17:28:25.073Z,13.05
2022-10-20T17:30:53.191Z,13.05
2022-10-20T17:33:19.968Z,12.18
2022-10-20T17:35:50.439Z,12.45
2022-10-20T17:38:17.208Z,13.10
2022-10-20T17:40:44.022Z,13.20
2022-10-20T17:43:10.804Z,14.30
2022-10-20T17:45:38.370Z,13.25
2022-10-20T17:48:05.528Z,13.27
2022-10-20T17:50:32.496Z,13.07
2022-10-20T17:53:01.314Z,13.55
2022-10-20T17:55:28.432Z,13.10
2022-10-20T17:57:55.404Z,13.75
2022-10-20T18:00:31.834Z,12.73
2022-10-20T18:03:09.079Z,13.70
2022-10-20T18:05:36.583Z,12.90
2022-10-20T18:08:03.489Z,13.63
2022-10-20T18:10:30.349Z,12.75
2022-10-20T18:12:57.149Z,13.30
2022-10-20T18:15:23.909Z,13.02
2022-10-20T18:17:50.791Z,12.00
2022-10-20T18:20:17.738Z,13.05
2022-10-20T18:22:45.598Z,13.80
2022-10-20T18:25:12.390Z,12.60
2022-10-20T18:27:39.161Z,13.15
2022-10-20T18:30:08.156Z,12.65
2022-10-20T18:32:36.529Z,12.82
2022-10-20T18:35:03.751Z,12.43
2022-10-20T18:37:30.537Z,12.85
2022-10-20T18:39:57.310Z,11.80
2022-10-20T18:42:24.091Z,12.38
2022-10-20T18:44:50.879Z,12.43
2022-10-20T18:47:17.727Z,12.75
2022-10-20T18:49:44.559Z,12.65
2022-10-20T18:52:11.371Z,12.02
2022-10-20T18:54:39.585Z,13.32
2022-10-20T18:57:06.397Z,13.15
2022-10-20T18:59:33.214Z,12.75
2022-10-20T19:01:59.999Z,13.32
2022-10-20T19:04:26.936Z,12.63
2022-10-20T19:06:53.907Z,12.70
2022-10-20T19:09:21.460Z,13.32
2022-10-20T19:14:17.386Z,12.98
2022-10-20T19:16:47.113Z,12.55
2022-10-20T19:19:14.508Z,12.65
2022-10-20T19:21:41.437Z,12.45
2022-10-20T19:24:16.727Z,13.07
2022-10-20T19:26:52.780Z,12.75
2022-10-20T19:29:29.582Z,13.50
2022-10-20T19:31:59.517Z,13.60
2022-10-20T19:34:29.368Z,13.25
2022-10-20T19:36:56.743Z,13.23
2022-10-20T19:39:27.426Z,13.65
2022-10-20T19:41:56.595Z,14.05
2022-10-20T19:44:23.907Z,13.98
2022-10-20T19:46:54.368Z,13.43
2022-10-20T19:49:22.384Z,13.65
2022-10-20T19:51:49.296Z,13.48
2022-10-20T19:54:16.538Z,13.27
2022-10-20T19:56:43.455Z,13.10
2022-10-20T19:59:11.095Z,13.10
2022-10-20T20:01:38.935Z,12.88
2022-10-20T20:04:06.615Z,12.77
2022-10-20T20:06:34.901Z,12.80
2022-10-20T20:09:05.453Z,13.43
2022-10-20T20:11:32.708Z,12.88
2022-10-20T20:14:06.868Z,12.90
2022-10-20T20:16:34.059Z,12.93
2022-10-20T20:19:00.954Z,12.60
2022-10-20T20:21:28.068Z,12.88
2022-10-20T20:23:59.789Z,12.43
2022-10-20T20:26:32.913Z,12.85
2022-10-20T20:29:00.274Z,12.50
2022-10-20T20:31:27.950Z,13.27
2022-10-20T20:33:56.829Z,13.20
2022-10-20T20:36:27.068Z,13.32
2022-10-20T20:38:57.477Z,12.45
2022-10-20T20:41:26.827Z,13.00
2022-10-20T20:43:53.898Z,13.38
2022-10-20T20:46:22.784Z,13.00
2022-10-20T20:48:50.310Z,12.90
2022-10-20T20:51:17.381Z,12.75
2022-10-20T20:53:44.424Z,12.90
2022-10-20T20:56:13.787Z,12.80
2022-10-20T20:58:42.203Z,12.07
2022-10-20T21:01:18.642Z,12.48
2022-10-20T21:03:46.292Z,12.27
2022-10-20T21:06:17.940Z,12.52
2022-10-20T21:08:47.831Z,12.68
2022-10-20T21:11:20.700Z,12.85
2022-10-20T21:13:49.033Z,12.60
2022-10-20T21:16:23.883Z,13.05
2022-10-20T21:18:53.041Z,12.95
2022-10-20T21:21:28.618Z,13.18
2022-10-20T21:23:57.189Z,13.30
2022-10-20T21:26:25.002Z,13.50
2022-10-20T21:28:53.169Z,14.00
2022-10-20T21:31:22.788Z,13.25
2022-10-20T21:33:51.670Z,13.43
2022-10-20T21:36:20.386Z,13.48
2022-10-20T21:38:47.693Z,13.55
2022-10-20T21:41:23.589Z,13.10
2022-10-20T21:43:53.060Z,13.07
2022-10-20T21:46:47.254Z,13.13
2022-10-20T21:49:17.213Z,13.00
2022-10-20T21:51:47.664Z,13.35
2022-10-20T21:54:17.260Z,12.88
2022-10-20T21:56:46.904Z,13.60
2022-10-20T21:59:25.351Z,13.45
2022-10-20T22:01:54.383Z,14.90
2022-10-20T22:04:23.993Z,14.43
2022-10-20T22:06:51.415Z,14.18
2022-10-20T22:09:18.417Z,14.55
2022-10-20T22:11:49.964Z,14.48
2022-10-20T22:14:16.764Z,14.02
2022-10-20T22:16:43.949Z,13.77
2022-10-20T22:19:17.686Z,13.40
2022-10-20T22:21:46.670Z,13.40
2022-10-20T22:24:14.680Z,13.55
2022-10-20T22:26:41.912Z,13.60
2022-10-20T22:29:12.262Z,14.15
2022-10-20T22:31:40.804Z,14.10
2022-10-20T22:34:08.617Z,13.45
2022-10-20T22:36:35.732Z,13.60
2022-10-20T22:39:02.881Z,13.75
2022-10-20T22:41:29.790Z,14.00
2022-10-20T22:43:58.039Z,14.45
2022-10-20T22:46:25.327Z,14.18
2022-10-20T22:48:52.139Z,14.15
2022-10-20T22:51:19.116Z,14.25
2022-10-20T22:53:45.900Z,13.43
2022-10-20T22:56:16.296Z,13.13
2022-10-20T22:58:43.532Z,13.57
2022-10-20T23:01:19.096Z,13.18
2022-10-20T23:03:46.449Z,14.05
2022-10-20T23:06:15.852Z,14.27
2022-10-20T23:08:45.212Z,12.98
2022-10-20T23:11:13.009Z,14.00
2022-10-20T23:13:39.828Z,13.77
2022-10-20T23:16:07.381Z,13.90
2022-10-20T23:18:34.643Z,13.90
2022-10-20T23:21:01.525Z,13.30
2022-10-20T23:23:28.712Z,14.02
2022-10-20T23:25:56.874Z,13.93
2022-10-20T23:28:25.384Z,13.80
2022-10-20T23:30:52.145Z,13.52
2022-10-20T23:33:18.955Z,14.20
2022-10-20T23:35:46.662Z,13.77
2022-10-20T23:38:13.424Z,13.95
2022-10-20T23:40:40.213Z,13.52
2022-10-20T23:43:06.998Z,14.20
2022-10-20T23:45:36.898Z,14.30
2022-10-20T23:48:04.912Z,14.15
2022-10-20T23:50:31.739Z,14.70
2022-10-20T23:52:58.560Z,14.07
2022-10-20T23:55:25.375Z,14.93
2022-10-20T23:57:52.219Z,13.95
